createdAt,value
2022-10-01T00:03:07.774Z,99995.69
2022-10-01T00:07:16.802Z,99996.00
2022-10-01T00:11:25.634Z,99997.79
2022-10-01T00:15:34.059Z,100001.83
2022-10-01T00:19:41.607Z,99999.17
2022-10-01T00:23:49.624Z,99997.23
2022-10-01T00:27:57.443Z,99995.94
2022-10-01T00:32:05.160Z,99996.30
2022-10-01T00:36:14.068Z,99999.29
2022-10-01T00:40:23.996Z,100002.58
2022-10-01T00:44:34.621Z,100001.45
2022-10-01T00:48:47.949Z,100003.91
2022-10-01T00:52:57.768Z,100014.56
2022-10-01T00:57:07.516Z,100010.46
2022-10-01T01:01:15.974Z,100013.77
2022-10-01T01:05:23.805Z,100010.86
2022-10-01T01:09:33.205Z,100008.66
2022-10-01T01:13:50.327Z,100011.80
2022-10-01T01:18:04.362Z,100002.80
2022-10-01T01:22:14.416Z,100007.52
2022-10-01T01:26:31.288Z,100006.78
2022-10-01T01:30:41.382Z,100004.88
2022-10-01T01:34:52.919Z,100006.35
2022-10-01T01:39:04.607Z,100001.59
2022-10-01T01:43:17.682Z,99998.25
2022-10-01T01:47:25.971Z,99995.08
2022-10-01T01:51:37.642Z,99991.41
2022-10-01T01:55:48.110Z,99984.36
2022-10-01T01:59:57.345Z,99984.41
2022-10-01T02:04:06.845Z,99977.14
2022-10-01T02:08:28.186Z,99973.36
2022-10-01T02:12:43.917Z,99967.94
2022-10-01T02:16:56.192Z,99965.00
2022-10-01T02:21:10.111Z,99961.30
2022-10-01T02:25:27.210Z,99960.39
2022-10-01T02:29:36.651Z,99951.11
2022-10-01T02:33:45.590Z,99948.31
2022-10-01T02:37:56.551Z,99944.66
2022-10-01T02:42:08.342Z,99943.26
2022-10-01T02:46:22.047Z,99944.33
2022-10-01T02:50:32.154Z,99940.54
2022-10-01T02:54:44.043Z,99943.91
2022-10-01T02:58:52.654Z,99942.09
2022-10-01T03:03:00.008Z,99942.85
2022-10-01T03:07:09.048Z,99941.48
2022-10-01T03:11:17.359Z,99943.09
2022-10-01T03:15:25.745Z,99944.02
2022-10-01T03:19:33.465Z,99949.36
2022-10-01T03:23:41.956Z,99947.30
2022-10-01T03:27:49.797Z,99939.81
2022-10-01T03:31:58.247Z,99933.67
2022-10-01T03:36:06.119Z,99923.61
2022-10-01T03:40:14.865Z,99924.94
2022-10-01T03:44:22.367Z,99926.52
2022-10-01T03:48:29.815Z,99924.08
2022-10-01T03:52:37.269Z,99922.44
2022-10-01T03:56:44.965Z,99924.64
2022-10-01T04:00:55.429Z,99921.69
2022-10-01T04:05:03.023Z,99921.31
2022-10-01T04:09:10.880Z,99911.04
2022-10-01T04:13:18.690Z,99909.40
2022-10-01T04:17:28.513Z,99904.11
2022-10-01T04:21:36.957Z,99903.58
2022-10-01T04:25:45.180Z,99905.42
2022-10-01T04:29:53.673Z,99903.93
2022-10-01T04:34:01.118Z,99904.95
2022-10-01T04:38:14.859Z,99907.94
2022-10-01T04:42:23.817Z,99913.24
2022-10-01T04:46:33.285Z,99913.89
2022-10-01T04:50:40.819Z,99914.31
2022-10-01T04:54:48.287Z,99910.92
2022-10-01T04:58:56.403Z,99906.67
2022-10-01T05:03:04.102Z,99903.50
2022-10-01T05:07:12.073Z,99902.54
2022-10-01T05:11:20.183Z,99902.73
2022-10-01T05:15:27.962Z,99899.61
2022-10-01T05:19:36.198Z,99904.54
2022-10-01T05:23:44.541Z,99904.04
2022-10-01T05:27:52.868Z,99901.49
2022-10-01T05:32:01.860Z,99899.92
2022-10-01T05:36:10.600Z,99901.23
2022-10-01T05:40:20.065Z,99904.31
2022-10-01T05:44:27.889Z,99900.92
2022-10-01T05:48:37.160Z,99894.59
2022-10-01T05:52:55.885Z,99891.35
2022-10-01T05:57:04.158Z,99886.52
2022-10-01T06:01:11.748Z,99882.78
2022-10-01T06:05:19.446Z,99887.77
2022-10-01T06:09:27.351Z,99887.49
2022-10-01T06:13:37.184Z,99886.88
2022-10-01T06:17:47.164Z,99891.32
2022-10-01T06:21:54.657Z,99887.61
2022-10-01T06:26:06.517Z,99883.27
2022-10-01T06:30:16.423Z,99881.52
2022-10-01T06:34:24.040Z,99881.45
2022-10-01T06:38:32.373Z,99880.73
2022-10-01T06:42:42.429Z,99882.85
2022-10-01T06:46:50.873Z,99874.14
2022-10-01T06:51:00.033Z,99866.14
2022-10-01T06:55:13.081Z,99863.89
2022-10-01T06:59:23.142Z,99861.58
2022-10-01T07:03:36.929Z,99860.13
2022-10-01T07:07:45.593Z,99858.36
2022-10-01T07:11:53.307Z,99852.58
2022-10-01T07:16:03.818Z,99852.48
2022-10-01T07:20:12.537Z,99843.14
2022-10-01T07:24:20.347Z,99839.34
2022-10-01T07:28:28.511Z,99835.98
2022-10-01T07:32:37.821Z,99826.43
2022-10-01T07:36:45.343Z,99826.26
2022-10-01T07:40:56.564Z,99824.92
2022-10-01T07:45:06.975Z,99830.56
2022-10-01T07:49:17.364Z,99830.38
2022-10-01T07:53:27.768Z,99830.30
2022-10-01T07:57:35.542Z,99828.61
2022-10-01T08:01:43.702Z,99829.48
2022-10-01T08:05:53.297Z,99824.89
2022-10-01T08:10:00.884Z,99822.96
2022-10-01T08:14:15.146Z,99817.31
2022-10-01T08:18:23.275Z,99813.61
2022-10-01T08:22:31.516Z,99802.98
2022-10-01T08:26:39.045Z,99800.06
2022-10-01T08:30:47.023Z,99786.29
2022-10-01T08:35:00.149Z,99778.60
2022-10-01T08:39:10.171Z,99769.09
2022-10-01T08:43:29.715Z,99764.73
2022-10-01T08:47:41.407Z,99755.57
2022-10-01T08:51:52.573Z,99753.23
2022-10-01T08:56:05.522Z,99745.90
2022-10-01T09:00:19.564Z,99744.08
2022-10-01T09:04:27.252Z,99742.02
2022-10-01T09:08:45.962Z,99733.47
2022-10-01T09:13:04.624Z,99736.04
2022-10-01T09:17:20.431Z,99733.92
2022-10-01T09:21:34.520Z,99717.36
2022-10-01T09:25:43.190Z,99716.44
2022-10-01T09:29:53.198Z,99707.15
2022-10-01T09:34:04.150Z,99706.00
2022-10-01T09:38:18.771Z,99705.23
2022-10-01T09:42:29.533Z,99697.48
2022-10-01T09:46:40.373Z,99691.67
2022-10-01T09:50:54.743Z,99681.65
2022-10-01T09:55:05.442Z,99672.33
2022-10-01T09:59:18.546Z,99667.25
2022-10-01T10:03:30.993Z,99662.98
2022-10-01T10:07:43.197Z,99661.77
2022-10-01T10:11:51.425Z,99659.14
2022-10-01T10:16:00.247Z,99653.38
2022-10-01T10:20:15.336Z,99648.86
2022-10-01T10:24:28.098Z,99641.55
2022-10-01T10:28:46.064Z,99631.96
2022-10-01T10:32:54.615Z,99628.38
2022-10-01T10:37:05.503Z,99620.06
2022-10-01T10:41:27.036Z,99609.38
2022-10-01T10:45:38.979Z,99607.83
2022-10-01T10:49:50.406Z,99604.52
2022-10-01T10:54:01.011Z,99597.82
2022-10-01T10:58:16.106Z,99593.47
2022-10-01T11:02:25.605Z,99590.40
2022-10-01T11:06:33.589Z,99584.62
2022-10-01T11:10:46.941Z,99576.53
2022-10-01T11:15:07.223Z,99574.41
2022-10-01T11:19:41.988Z,99571.15
2022-10-01T11:24:10.582Z,99574.48
2022-10-01T11:28:33.707Z,99572.53
2022-10-01T11:32:46.226Z,99569.80
2022-10-01T11:37:01.391Z,99570.03
2022-10-01T11:41:19.420Z,99568.34
2022-10-01T11:45:29.051Z,99564.90
2022-10-01T11:49:45.414Z,99557.44
2022-10-01T11:53:55.461Z,99551.46
2022-10-01T11:58:23.885Z,99549.49
2022-10-01T12:02:36.709Z,99554.35
2022-10-01T12:06:50.621Z,99538.73
2022-10-01T12:11:04.417Z,99536.66
2022-10-01T12:15:18.761Z,99542.54
2022-10-01T12:19:28.283Z,99536.16
2022-10-01T12:23:45.754Z,99525.20
2022-10-01T12:28:02.507Z,99510.46
2022-10-01T12:32:18.197Z,99503.56
2022-10-01T12:36:31.331Z,99496.66
2022-10-01T12:40:45.656Z,99490.30
2022-10-01T12:45:03.573Z,99480.39
2022-10-01T12:49:22.917Z,99481.05
2022-10-01T12:53:36.848Z,99475.65
2022-10-01T12:57:52.458Z,99476.04
2022-10-01T13:02:16.623Z,99471.98
2022-10-01T13:06:35.045Z,99462.28
2022-10-01T13:10:52.730Z,99461.06
2022-10-01T13:15:01.363Z,99458.17
2022-10-01T13:19:14.735Z,99460.70
2022-10-01T13:23:33.719Z,99456.68
2022-10-01T13:27:48.212Z,99454.80
2022-10-01T13:31:58.376Z,99454.16
2022-10-01T13:36:07.884Z,99451.95
2022-10-01T13:40:28.488Z,99444.61
2022-10-01T13:44:37.319Z,99438.55
2022-10-01T13:48:50.794Z,99437.91
2022-10-01T13:53:09.359Z,99433.13
2022-10-01T13:57:31.884Z,99430.21
2022-10-01T14:01:43.831Z,99427.40
2022-10-01T14:05:56.956Z,99425.14
2022-10-01T14:10:05.405Z,99426.71
2022-10-01T14:14:38.613Z,99425.77
2022-10-01T14:18:48.361Z,99421.52
2022-10-01T14:23:08.865Z,99420.44
2022-10-01T14:27:21.604Z,99416.32
2022-10-01T14:31:40.109Z,99424.05
2022-10-01T14:35:50.575Z,99440.70
2022-10-01T14:40:16.903Z,99456.35
2022-10-01T14:44:28.355Z,99452.52
2022-10-01T14:48:38.882Z,99450.95
2022-10-01T14:52:49.069Z,99454.40
2022-10-01T14:56:57.045Z,99452.35
2022-10-01T15:01:05.112Z,99457.72
2022-10-01T15:05:23.640Z,99466.08
2022-10-01T15:09:35.948Z,99460.98
2022-10-01T15:13:45.453Z,99460.44
2022-10-01T15:17:54.177Z,99459.45
2022-10-01T15:22:03.781Z,99455.48
2022-10-01T15:26:13.627Z,99452.90
2022-10-01T15:30:22.275Z,99447.86
2022-10-01T15:34:30.635Z,99445.66
2022-10-01T15:38:39.324Z,99447.98
2022-10-01T15:43:14.580Z,99442.23
2022-10-01T15:47:35.405Z,99442.80
2022-10-01T15:52:11.291Z,99440.48
2022-10-01T15:56:21.494Z,99432.56
2022-10-01T16:00:31.741Z,99424.05
2022-10-01T16:04:39.516Z,99417.67
2022-10-01T16:09:02.277Z,99415.47
2022-10-01T16:13:30.521Z,99417.30
2022-10-01T16:17:40.254Z,99412.67
2022-10-01T16:22:21.355Z,99407.84
2022-10-01T16:26:42.738Z,99412.08
2022-10-01T16:30:52.929Z,99415.64
2022-10-01T16:35:19.709Z,99412.20
2022-10-01T16:39:27.493Z,99414.23
2022-10-01T16:43:35.655Z,99417.14
2022-10-01T16:47:43.165Z,99421.49
2022-10-01T16:51:56.644Z,99395.79
2022-10-01T16:56:04.842Z,99410.48
2022-10-01T17:00:16.966Z,99414.81
2022-10-01T17:04:30.361Z,99413.74
2022-10-01T17:08:39.466Z,99413.87
2022-10-01T17:12:48.151Z,99422.63
2022-10-01T17:16:55.861Z,99426.55
2022-10-01T17:21:05.652Z,99420.90
2022-10-01T17:25:17.861Z,99426.23
2022-10-01T17:29:26.846Z,99429.90
2022-10-01T17:33:35.945Z,99432.73
2022-10-01T17:37:45.858Z,99432.02
2022-10-01T17:41:53.648Z,99435.86
2022-10-01T17:46:02.486Z,99437.01
2022-10-01T17:50:11.868Z,99441.06
2022-10-01T17:54:20.205Z,99440.52
2022-10-01T17:58:29.611Z,99439.30
2022-10-01T18:02:42.147Z,99444.25
2022-10-01T18:06:52.767Z,99446.40
2022-10-01T18:11:09.085Z,99457.27
2022-10-01T18:15:21.036Z,99468.92
2022-10-01T18:24:04.229Z,99476.36
2022-10-01T18:28:12.251Z,99471.80
2022-10-01T18:32:23.623Z,99470.55
2022-10-01T18:36:51.981Z,99476.23
2022-10-01T18:41:04.119Z,99476.20
2022-10-01T18:45:18.685Z,99470.83
2022-10-01T18:49:52.415Z,99469.08
2022-10-01T18:54:12.257Z,99468.34
2022-10-01T18:58:36.516Z,99460.01
2022-10-01T19:03:04.913Z,99467.55
2022-10-01T19:07:23.112Z,99468.10
2022-10-01T19:11:35.395Z,99470.60
2022-10-01T19:15:52.187Z,99471.83
2022-10-01T19:20:12.207Z,99472.27
2022-10-01T19:24:42.228Z,99476.36
2022-10-01T19:29:04.538Z,99475.03
2022-10-01T19:33:13.687Z,99480.48
2022-10-01T19:37:27.928Z,99482.44
2022-10-01T19:41:41.361Z,99489.68
2022-10-01T19:45:54.388Z,99486.02
2022-10-01T19:50:07.261Z,99491.35
2022-10-01T19:54:17.524Z,99495.67
2022-10-01T19:58:24.863Z,99496.14
2022-10-01T20:02:38.285Z,99498.65
2022-10-01T20:06:47.825Z,99499.73
2022-10-01T20:10:58.548Z,99499.09
2022-10-01T20:15:11.885Z,99499.46
2022-10-01T20:19:28.384Z,99503.75
2022-10-01T20:23:43.664Z,99497.89
2022-10-01T20:27:56.288Z,99504.24
2022-10-01T20:32:08.957Z,99507.30
2022-10-01T20:36:20.799Z,99505.84
2022-10-01T20:40:32.946Z,99507.52
2022-10-01T20:44:41.633Z,99512.48
2022-10-01T20:48:53.986Z,99513.95
2022-10-01T20:53:14.406Z,99518.28
2022-10-01T20:57:30.711Z,99517.79
2022-10-01T21:01:46.331Z,99520.23
2022-10-01T21:05:55.986Z,99526.10
2022-10-01T21:10:05.427Z,99526.45
2022-10-01T21:14:18.409Z,99533.45
2022-10-01T21:18:35.626Z,99539.34
2022-10-01T21:22:52.650Z,99542.34
2022-10-01T21:27:08.121Z,99548.44
2022-10-01T21:31:25.477Z,99553.86
2022-10-01T21:35:34.860Z,99560.35
2022-10-01T21:39:48.775Z,99561.16
2022-10-01T21:44:15.672Z,99563.17
2022-10-01T21:48:31.765Z,99562.55
2022-10-01T21:52:45.397Z,99569.55
2022-10-01T21:57:02.288Z,99570.94
2022-10-01T22:01:18.724Z,99572.21
2022-10-01T22:05:33.518Z,99577.21
2022-10-01T22:09:44.934Z,99580.96
2022-10-01T22:13:55.301Z,99586.96
2022-10-01T22:18:04.258Z,99591.73
2022-10-01T22:22:14.593Z,99598.37
2022-10-01T22:26:24.811Z,99603.70
2022-10-01T22:30:36.092Z,99610.16
2022-10-01T22:34:46.775Z,99609.27
2022-10-01T22:38:57.607Z,99614.62
2022-10-01T22:43:09.291Z,99618.09
2022-10-01T22:47:58.780Z,99623.70
2022-10-01T22:52:14.683Z,99629.44
2022-10-01T22:56:28.192Z,99633.68
2022-10-01T23:00:40.543Z,99636.89
2022-10-01T23:04:57.771Z,99645.98
2022-10-01T23:09:07.511Z,99651.59
2022-10-01T23:13:21.120Z,99656.58
2022-10-01T23:17:33.411Z,99662.19
2022-10-01T23:21:47.734Z,99673.02
2022-10-01T23:26:10.170Z,99679.92
2022-10-01T23:30:19.078Z,99686.21
2022-10-01T23:34:33.561Z,99693.92
2022-10-01T23:39:02.957Z,99704.56
2022-10-01T23:43:13.462Z,99708.41
2022-10-01T23:47:24.155Z,99716.31
2022-10-01T23:51:34.181Z,99722.73
2022-10-01T23:56:06.924Z,99722.40
